createdAt,value
2018-01-25T00:00:37.269Z,22.4
2018-01-25T00:01:37.184Z,22.4
2018-01-25T00:02:36.926Z,22.4
2018-01-25T00:03:36.895Z,22.4
2018-01-25T00:04:36.642Z,22.4
2018-01-25T00:05:36.690Z,22.4
2018-01-25T00:06:36.541Z,22.4
2018-01-25T00:07:37.066Z,22.4
2018-01-25T00:08:36.449Z,22.5
2018-01-25T00:09:36.607Z,22.4
2018-01-25T00:10:36.106Z,22.4
2018-01-25T00:11:36.144Z,22.4
2018-01-25T00:12:36.198Z,22.4
2018-01-25T00:13:36.398Z,22.4
2018-01-25T00:14:35.977Z,22.4
2018-01-25T00:15:35.908Z,22.4
2018-01-25T00:16:35.696Z,22.4
2018-01-25T00:17:35.896Z,22.4
2018-01-25T00:18:35.552Z,22.4
2018-01-25T00:19:35.512Z,22.4
2018-01-25T00:20:35.438Z,22.4
2018-01-25T00:21:35.569Z,22.4
2018-01-25T00:22:35.336Z,22.4
2018-01-25T00:23:35.186Z,22.4
2018-01-25T00:24:35.571Z,22.4
2018-01-25T00:25:35.077Z,22.4
2018-01-25T00:26:35.440Z,22.3
2018-01-25T00:27:34.964Z,22.4
2018-01-25T00:28:35.065Z,22.3
2018-01-25T00:29:34.991Z,22.4
2018-01-25T00:30:34.979Z,22.4
2018-01-25T00:31:34.633Z,22.4
2018-01-25T00:32:34.860Z,22.4
2018-01-25T00:33:34.493Z,22.3
2018-01-25T00:34:34.896Z,22.3
2018-01-25T00:35:34.505Z,22.3
2018-01-25T00:36:34.680Z,22.3
2018-01-25T00:37:34.499Z,22.3
2018-01-25T00:38:34.278Z,22.3
2018-01-25T00:39:34.253Z,22.3
2018-01-25T00:40:34.241Z,22.3
2018-01-25T00:41:34.215Z,22.3
2018-01-25T00:42:34.354Z,22.3
2018-01-25T00:43:34.093Z,22.3
2018-01-25T00:44:33.848Z,22.3
2018-01-25T00:45:33.712Z,22.3
2018-01-25T00:46:33.719Z,22.3
2018-01-25T00:47:33.802Z,22.3
2018-01-25T00:48:33.777Z,22.3
2018-01-25T00:49:33.465Z,22.3
2018-01-25T00:50:33.704Z,22.3
2018-01-25T00:51:33.789Z,22.3
2018-01-25T00:52:33.238Z,22.3
2018-01-25T00:53:33.262Z,22.3
2018-01-25T00:54:33.228Z,22.3
2018-01-25T00:55:33.148Z,22.3
2018-01-25T00:56:32.968Z,22.2
2018-01-25T00:57:32.954Z,22.3
2018-01-25T00:58:32.815Z,22.3
2018-01-25T00:59:32.943Z,22.2
2018-01-25T01:00:32.849Z,22.2
2018-01-25T01:01:32.834Z,22.2
2018-01-25T01:02:32.669Z,22.2
2018-01-25T01:03:32.691Z,22.2
2018-01-25T01:04:32.377Z,22.2
2018-01-25T01:05:32.464Z,22.2
2018-01-25T01:06:32.229Z,22.2
2018-01-25T01:07:32.399Z,22.2
2018-01-25T01:08:32.432Z,22.2
2018-01-25T01:09:32.435Z,22.2
2018-01-25T01:10:32.114Z,22.2
2018-01-25T01:11:31.952Z,22.2
2018-01-25T01:12:32.061Z,22.2
2018-01-25T01:13:32.206Z,22.1
2018-01-25T01:14:32.076Z,22.2
2018-01-25T01:15:32.036Z,22.2
2018-01-25T01:16:31.886Z,22.2
2018-01-25T01:17:31.550Z,22.1
2018-01-25T01:18:40.773Z,22.1
2018-01-25T01:19:40.472Z,22.1
2018-01-25T01:20:40.441Z,22.1
2018-01-25T01:21:40.456Z,22.1
2018-01-25T01:22:40.489Z,22.1
2018-01-25T01:23:40.354Z,22.1
2018-01-25T01:24:40.203Z,22.1
2018-01-25T01:25:39.932Z,22.1
2018-01-25T01:26:39.873Z,22.1
2018-01-25T01:27:40.086Z,22.1
2018-01-25T01:28:40.023Z,22.1
2018-01-25T01:29:40.078Z,22.1
2018-01-25T01:30:39.832Z,22.1
2018-01-25T01:31:39.557Z,22.1
2018-01-25T01:32:39.465Z,22.1
2018-01-25T01:33:39.794Z,22.1
2018-01-25T01:34:39.392Z,22.1
2018-01-25T01:35:39.560Z,22.1
2018-01-25T01:36:39.009Z,22.1
2018-01-25T01:37:39.118Z,22.1
2018-01-25T01:38:39.145Z,22.1
2018-01-25T01:39:38.927Z,22.1
2018-01-25T01:40:38.722Z,22.1
2018-01-25T01:41:38.886Z,22.1
2018-01-25T01:42:38.714Z,22.1
2018-01-25T01:43:38.759Z,22.1
2018-01-25T01:44:38.471Z,22.1
2018-01-25T01:45:38.489Z,22.1
2018-01-25T01:46:38.367Z,22.1
2018-01-25T01:47:38.500Z,22.1
2018-01-25T01:48:38.314Z,22.1
2018-01-25T01:49:38.220Z,22.1
2018-01-25T01:50:38.682Z,22.1
2018-01-25T01:51:38.060Z,22.1
2018-01-25T01:52:38.026Z,22.1
2018-01-25T01:53:37.762Z,22.1
2018-01-25T01:54:37.700Z,22.1
2018-01-25T01:55:37.927Z,22.1
2018-01-25T01:56:37.796Z,22.1
2018-01-25T01:57:37.834Z,22.1
2018-01-25T01:58:37.404Z,22.1
2018-01-25T01:59:37.368Z,22.1
2018-01-25T02:00:37.578Z,22.1
2018-01-25T02:01:37.804Z,22.1
2018-01-25T02:02:37.202Z,22.1
2018-01-25T02:03:37.241Z,22.1
2018-01-25T02:04:37.252Z,22.1
2018-01-25T02:05:36.745Z,22.1
2018-01-25T02:06:37.018Z,22.1
2018-01-25T02:07:36.985Z,22.1
2018-01-25T02:08:36.661Z,22.1
2018-01-25T02:09:37.071Z,22.1
2018-01-25T02:10:36.571Z,22.1
2018-01-25T02:11:36.410Z,22.1
2018-01-25T02:12:36.227Z,22.1
2018-01-25T02:13:36.113Z,22.1
2018-01-25T02:14:36.197Z,22.1
2018-01-25T02:15:36.356Z,22.1
2018-01-25T02:16:36.058Z,22.1
2018-01-25T02:17:36.054Z,22.1
2018-01-25T02:18:36.192Z,22.1
2018-01-25T02:19:35.774Z,22.1
2018-01-25T02:20:35.894Z,22.1
2018-01-25T02:21:35.758Z,22
2018-01-25T02:22:35.390Z,22.1
2018-01-25T02:23:35.822Z,22
2018-01-25T02:24:35.516Z,22
2018-01-25T02:25:35.248Z,22
2018-01-25T02:26:35.239Z,22
2018-01-25T02:27:35.033Z,22
2018-01-25T02:28:35.066Z,22
2018-01-25T02:29:34.899Z,22
2018-01-25T02:30:34.767Z,22
2018-01-25T02:31:34.769Z,22
2018-01-25T02:32:34.829Z,22
2018-01-25T02:33:34.809Z,22
2018-01-25T02:34:34.878Z,22
2018-01-25T02:35:34.509Z,22
2018-01-25T02:36:34.519Z,22
2018-01-25T02:37:34.704Z,22
2018-01-25T02:38:34.141Z,22
2018-01-25T02:39:34.637Z,22
2018-01-25T02:40:34.003Z,22
2018-01-25T02:41:34.247Z,22
2018-01-25T02:42:34.263Z,22
2018-01-25T02:43:33.891Z,22
2018-01-25T02:44:34.011Z,22
2018-01-25T02:45:33.820Z,22
2018-01-25T02:46:33.905Z,22
2018-01-25T02:47:33.425Z,22
2018-01-25T02:48:33.429Z,22
2018-01-25T02:49:33.750Z,22
2018-01-25T02:50:33.254Z,22
2018-01-25T02:51:33.459Z,22
2018-01-25T02:52:33.078Z,22
2018-01-25T02:53:33.028Z,22
2018-01-25T02:54:32.967Z,22
2018-01-25T02:55:33.395Z,22
2018-01-25T02:56:32.814Z,22
2018-01-25T02:57:32.919Z,22
2018-01-25T02:58:32.799Z,22
2018-01-25T02:59:32.630Z,22
2018-01-25T03:00:32.646Z,22
2018-01-25T03:01:33.278Z,22
2018-01-25T03:02:32.524Z,22
2018-01-25T03:03:32.297Z,22
2018-01-25T03:04:32.563Z,22
2018-01-25T03:05:32.276Z,22
2018-01-25T03:06:32.429Z,22
2018-01-25T03:07:32.019Z,22
2018-01-25T03:08:31.927Z,22
2018-01-25T03:09:32.032Z,22
2018-01-25T03:10:31.684Z,22
2018-01-25T03:11:31.546Z,22
2018-01-25T03:12:31.651Z,22
2018-01-25T03:13:31.610Z,22
2018-01-25T03:14:31.662Z,22
2018-01-25T03:16:31.376Z,21.9
2018-01-25T03:17:31.204Z,21.9
2018-01-25T03:18:31.158Z,21.9
2018-01-25T03:19:31.134Z,21.9
2018-01-25T03:20:30.896Z,21.9
2018-01-25T03:21:31.111Z,21.9
2018-01-25T03:22:30.858Z,21.9
2018-01-25T03:23:30.730Z,21.9
2018-01-25T03:24:30.672Z,21.9
2018-01-25T03:25:30.709Z,21.9
2018-01-25T03:26:30.550Z,21.9
2018-01-25T03:27:30.471Z,21.9
2018-01-25T03:28:30.326Z,21.9
2018-01-25T03:29:30.402Z,21.9
2018-01-25T03:30:30.135Z,21.9
2018-01-25T03:31:30.020Z,21.9
2018-01-25T03:32:30.010Z,22
2018-01-25T03:33:30.141Z,21.9
2018-01-25T03:34:30.091Z,22
2018-01-25T03:35:29.823Z,21.9
2018-01-25T03:36:29.899Z,22
2018-01-25T03:37:29.859Z,21.9
2018-01-25T03:38:29.594Z,21.9
2018-01-25T03:39:29.608Z,21.9
2018-01-25T03:40:29.682Z,21.9
2018-01-25T03:41:29.320Z,21.9
2018-01-25T03:42:29.377Z,21.9
2018-01-25T03:43:29.204Z,21.9
2018-01-25T03:44:29.229Z,21.9
2018-01-25T03:45:28.989Z,21.9
2018-01-25T03:46:29.362Z,22
2018-01-25T03:47:28.747Z,21.9
2018-01-25T03:48:28.765Z,22
2018-01-25T03:49:28.688Z,22
2018-01-25T03:50:28.492Z,22
2018-01-25T03:51:28.777Z,22
2018-01-25T03:52:28.539Z,22.1
2018-01-25T03:53:28.404Z,22.1
2018-01-25T03:54:28.479Z,22.1
2018-01-25T03:55:28.243Z,22.1
2018-01-25T03:56:28.228Z,22.1
2018-01-25T03:57:28.117Z,22.1
2018-01-25T03:58:28.235Z,22.1
2018-01-25T03:59:27.942Z,22.1
2018-01-25T04:00:27.978Z,22.1
2018-01-25T04:01:27.698Z,22.1
2018-01-25T04:02:27.703Z,22.1
2018-01-25T04:03:27.579Z,22.1
2018-01-25T04:04:27.612Z,22.1
2018-01-25T04:05:27.603Z,22.1
2018-01-25T04:06:27.279Z,22.1
2018-01-25T04:07:27.226Z,22.1
2018-01-25T04:08:27.244Z,22.1
2018-01-25T04:09:27.299Z,22.1
2018-01-25T04:10:27.369Z,22.1
2018-01-25T04:11:26.929Z,22.1
2018-01-25T04:12:26.906Z,22
2018-01-25T04:13:26.711Z,22.1
2018-01-25T04:14:26.905Z,22.1
2018-01-25T04:15:26.784Z,22.1
2018-01-25T04:16:26.512Z,22.1
2018-01-25T04:17:26.645Z,22
2018-01-25T04:18:26.438Z,22.1
2018-01-25T04:19:26.331Z,22.1
2018-01-25T04:20:26.259Z,22
2018-01-25T04:21:26.560Z,22.1
2018-01-25T04:22:25.972Z,22
2018-01-25T04:23:26.332Z,22
2018-01-25T04:24:25.922Z,22
2018-01-25T04:25:26.083Z,22
2018-01-25T04:26:25.727Z,22
2018-01-25T04:27:25.613Z,22
2018-01-25T04:28:25.730Z,22
2018-01-25T04:29:25.755Z,22
2018-01-25T04:30:25.497Z,22
2018-01-25T04:31:25.427Z,22
2018-01-25T04:32:25.349Z,22
2018-01-25T04:33:25.273Z,22
2018-01-25T04:34:25.233Z,22
2018-01-25T04:35:25.196Z,22
2018-01-25T04:36:25.005Z,22
2018-01-25T04:37:24.880Z,22
2018-01-25T04:38:24.871Z,22
2018-01-25T04:39:24.739Z,22
2018-01-25T04:40:25.120Z,22
2018-01-25T04:41:24.635Z,22
2018-01-25T04:42:24.480Z,22
2018-01-25T04:43:24.415Z,22
2018-01-25T04:44:24.676Z,22
2018-01-25T04:45:24.302Z,22
2018-01-25T04:46:24.195Z,22
2018-01-25T04:47:24.154Z,22
2018-01-25T04:48:24.177Z,22
2018-01-25T04:49:23.910Z,22
2018-01-25T04:50:23.750Z,22
2018-01-25T04:51:23.844Z,22
2018-01-25T04:52:23.844Z,22
2018-01-25T04:53:23.534Z,22
2018-01-25T04:54:23.874Z,22.1
2018-01-25T04:55:23.388Z,22
2018-01-25T04:56:23.853Z,22
2018-01-25T04:57:23.626Z,22
2018-01-25T04:58:23.183Z,22.1
2018-01-25T04:59:23.296Z,22
2018-01-25T05:00:23.475Z,22
2018-01-25T05:01:23.310Z,22
2018-01-25T05:02:23.138Z,22
2018-01-25T05:03:23.049Z,22
2018-01-25T05:04:23.121Z,22
2018-01-25T05:05:22.696Z,22
2018-01-25T05:06:22.679Z,22
2018-01-25T05:07:22.525Z,22
2018-01-25T05:08:22.593Z,22
2018-01-25T05:09:22.415Z,22
2018-01-25T05:10:22.192Z,22
2018-01-25T05:11:22.578Z,22.1
2018-01-25T05:12:22.390Z,22.1
2018-01-25T05:13:22.297Z,22.1
2018-01-25T05:14:21.993Z,22.1
2018-01-25T05:15:21.992Z,22
2018-01-25T05:16:21.986Z,22.1
2018-01-25T05:17:22.177Z,22.1
2018-01-25T05:18:21.690Z,22.1
2018-01-25T05:19:21.534Z,22.1
2018-01-25T05:20:21.578Z,22.1
2018-01-25T05:21:21.502Z,22.1
2018-01-25T05:22:21.262Z,22.1
2018-01-25T05:23:21.503Z,22.1
2018-01-25T05:24:21.317Z,22
2018-01-25T05:25:21.227Z,22.1
2018-01-25T05:26:21.363Z,22.1
2018-01-25T05:27:21.266Z,22.1
2018-01-25T05:28:20.830Z,22
2018-01-25T05:29:20.749Z,22
2018-01-25T05:30:20.834Z,22.1
2018-01-25T05:31:20.695Z,22.1
2018-01-25T05:32:20.663Z,22.1
2018-01-25T05:33:20.598Z,22.1
2018-01-25T05:34:20.455Z,22.1
2018-01-25T05:35:20.342Z,22.1
2018-01-25T05:36:20.328Z,22.1
2018-01-25T05:37:20.149Z,22.1
2018-01-25T05:38:20.046Z,22.1
2018-01-25T05:39:20.139Z,22.1
2018-01-25T05:40:20.087Z,22.1
2018-01-25T05:42:22.398Z,22.1
2018-01-25T05:43:22.020Z,22.1
2018-01-25T05:44:22.087Z,22.2
2018-01-25T05:45:21.914Z,22.2
2018-01-25T05:46:22.326Z,22.2
2018-01-25T05:47:21.795Z,22.2
2018-01-25T05:48:21.855Z,22.2
2018-01-25T05:49:21.657Z,22.3
2018-01-25T05:50:21.654Z,22.3
2018-01-25T05:51:21.815Z,22.3
2018-01-25T05:52:21.598Z,22.3
2018-01-25T05:53:21.486Z,22.3
2018-01-25T05:54:21.396Z,22.4
2018-01-25T05:55:21.338Z,22.4
2018-01-25T05:56:21.065Z,22.4
2018-01-25T05:57:21.136Z,22.4
2018-01-25T05:58:21.126Z,22.4
2018-01-25T05:59:20.880Z,22.4
2018-01-25T06:00:20.876Z,22.5
2018-01-25T06:01:20.966Z,22.5
2018-01-25T06:02:20.665Z,22.5
2018-01-25T06:03:20.591Z,22.6
2018-01-25T06:04:20.663Z,22.6
2018-01-25T06:05:20.394Z,22.6
2018-01-25T06:06:20.340Z,22.6
2018-01-25T06:07:20.328Z,22.6
